createdAt,value
2019-05-09T00:01:20.399Z,99.90
2019-05-09T00:03:46.887Z,99.90
2019-05-09T00:06:13.696Z,99.90
2019-05-09T00:08:40.390Z,99.90
2019-05-09T00:11:06.742Z,99.90
2019-05-09T00:13:34.098Z,99.90
2019-05-09T00:16:03.413Z,99.90
2019-05-09T00:18:29.291Z,99.90
2019-05-09T00:21:14.251Z,99.90
2019-05-09T00:23:40.662Z,99.90
2019-05-09T00:26:07.110Z,99.90
2019-05-09T00:28:36.119Z,99.90
2019-05-09T00:31:04.578Z,99.90
2019-05-09T00:33:34.366Z,99.90
2019-05-09T00:36:00.305Z,99.90
2019-05-09T00:38:43.611Z,99.90
2019-05-09T00:41:10.095Z,99.90
2019-05-09T00:43:36.553Z,99.90
2019-05-09T00:46:04.955Z,99.90
2019-05-09T00:48:33.799Z,99.90
2019-05-09T00:51:00.104Z,99.90
2019-05-09T00:53:26.550Z,99.90
2019-05-09T00:55:53.457Z,99.90
2019-05-09T00:58:20.079Z,99.90
2019-05-09T01:00:46.942Z,99.90
2019-05-09T01:03:14.214Z,99.90
2019-05-09T01:05:40.781Z,99.90
2019-05-09T01:08:07.258Z,99.90
2019-05-09T01:10:34.278Z,99.90
2019-05-09T01:13:00.796Z,99.90
2019-05-09T01:15:27.210Z,99.90
2019-05-09T01:17:53.805Z,99.90
2019-05-09T01:20:21.037Z,99.90
2019-05-09T01:22:47.337Z,99.90
2019-05-09T01:25:13.809Z,99.90
2019-05-09T01:27:40.293Z,99.90
2019-05-09T01:30:08.219Z,99.90
2019-05-09T01:32:36.412Z,99.90
2019-05-09T01:35:03.856Z,99.90
2019-05-09T01:37:30.524Z,99.90
2019-05-09T01:39:56.916Z,99.90
2019-05-09T01:42:23.392Z,99.90
2019-05-09T01:44:49.786Z,99.90
2019-05-09T01:47:18.157Z,99.90
2019-05-09T01:49:44.540Z,99.90
2019-05-09T01:52:10.913Z,99.90
2019-05-09T01:54:39.357Z,99.90
2019-05-09T01:57:05.822Z,99.90
2019-05-09T01:59:33.888Z,99.90
2019-05-09T02:02:00.633Z,99.90
2019-05-09T02:04:27.001Z,99.90
2019-05-09T02:06:53.892Z,99.90
2019-05-09T02:09:20.451Z,99.90
2019-05-09T02:11:46.845Z,99.90
2019-05-09T02:14:15.245Z,99.90
2019-05-09T02:16:53.769Z,99.90
2019-05-09T02:19:24.009Z,99.90
2019-05-09T02:21:50.214Z,99.90
2019-05-09T02:24:16.595Z,99.90
2019-05-09T02:26:43.909Z,99.90
2019-05-09T02:29:10.215Z,99.90
2019-05-09T02:31:36.597Z,99.90
2019-05-09T02:34:04.950Z,99.90
2019-05-09T02:36:31.367Z,99.90
2019-05-09T02:38:59.048Z,99.90
2019-05-09T02:41:28.509Z,99.90
2019-05-09T02:43:54.006Z,99.90
2019-05-09T02:46:25.179Z,99.90
2019-05-09T02:48:51.555Z,99.90
2019-05-09T02:51:18.699Z,99.90
2019-05-09T02:53:48.372Z,99.90
2019-05-09T02:56:13.470Z,99.90
2019-05-09T02:59:00.733Z,99.90
2019-05-09T03:01:40.731Z,99.90
2019-05-09T03:04:08.517Z,99.90
2019-05-09T03:06:38.803Z,99.90
2019-05-09T03:09:08.670Z,99.90
2019-05-09T03:11:33.975Z,99.90
2019-05-09T03:14:00.543Z,99.90
2019-05-09T03:16:29.289Z,99.90
2019-05-09T03:18:58.221Z,99.90
2019-05-09T03:21:25.372Z,99.90
2019-05-09T03:23:51.805Z,99.90
2019-05-09T03:26:20.160Z,99.90
2019-05-09T03:28:51.053Z,99.90
2019-05-09T03:31:20.382Z,99.90
2019-05-09T03:33:50.055Z,99.90
2019-05-09T03:36:15.126Z,99.90
2019-05-09T03:38:41.626Z,99.90
2019-05-09T03:41:08.621Z,99.90
2019-05-09T03:43:35.119Z,99.90
2019-05-09T03:46:03.519Z,99.90
2019-05-09T03:48:43.637Z,99.90
2019-05-09T03:51:10.134Z,99.90
2019-05-09T03:53:37.967Z,99.90
2019-05-09T03:56:07.915Z,99.90
2019-05-09T03:58:34.261Z,99.90
2019-05-09T04:01:00.636Z,99.90
2019-05-09T04:03:27.783Z,99.90
2019-05-09T04:05:59.238Z,99.90
2019-05-09T04:08:22.613Z,99.90
2019-05-09T04:10:51.183Z,99.90
2019-05-09T04:13:18.128Z,99.90
2019-05-09T04:15:44.736Z,99.90
2019-05-09T04:18:11.242Z,99.90
2019-05-09T04:20:37.812Z,99.90
2019-05-09T04:23:04.429Z,99.90
2019-05-09T04:25:32.823Z,99.90
2019-05-09T04:27:59.321Z,99.90
2019-05-09T04:30:27.434Z,99.90
2019-05-09T04:32:58.014Z,99.90
2019-05-09T04:35:24.088Z,99.90
2019-05-09T04:37:50.598Z,99.90
2019-05-09T04:40:17.789Z,99.90
2019-05-09T04:42:44.569Z,99.90
2019-05-09T04:45:33.269Z,99.90
2019-05-09T04:47:57.803Z,99.90
2019-05-09T04:50:25.049Z,99.90
2019-05-09T04:52:51.465Z,99.90
2019-05-09T04:55:19.260Z,99.90
2019-05-09T04:57:45.764Z,99.90
2019-05-09T05:00:14.200Z,99.90
2019-05-09T05:02:42.602Z,99.90
2019-05-09T05:05:09.429Z,99.90
2019-05-09T05:07:37.637Z,99.90
2019-05-09T05:10:08.796Z,99.90
2019-05-09T05:12:34.403Z,99.90
2019-05-09T05:15:00.969Z,99.90
2019-05-09T05:17:30.274Z,99.90
2019-05-09T05:19:57.863Z,99.90
2019-05-09T05:22:28.193Z,99.90
2019-05-09T05:24:59.444Z,99.90
2019-05-09T05:27:24.553Z,99.90
2019-05-09T05:29:51.154Z,99.90
2019-05-09T05:32:19.581Z,99.90
2019-05-09T05:35:04.394Z,99.90
2019-05-09T05:37:30.764Z,99.90
2019-05-09T05:39:58.287Z,99.90
2019-05-09T05:42:24.923Z,99.90
2019-05-09T05:44:51.399Z,99.90
2019-05-09T05:47:37.990Z,99.90
2019-05-09T05:50:04.815Z,99.90
2019-05-09T05:52:31.457Z,99.90
2019-05-09T05:54:58.288Z,99.90
2019-05-09T05:57:24.874Z,99.90
2019-05-09T05:59:51.357Z,99.90
2019-05-09T06:02:18.013Z,99.90
2019-05-09T06:04:44.339Z,99.90
2019-05-09T06:07:10.726Z,99.90
2019-05-09T06:09:37.976Z,99.90
2019-05-09T06:12:04.677Z,99.90
2019-05-09T06:14:31.295Z,99.90
2019-05-09T06:16:58.778Z,99.90
2019-05-09T06:19:25.521Z,99.90
2019-05-09T06:21:52.330Z,99.90
2019-05-09T06:24:18.919Z,99.90
2019-05-09T06:26:47.680Z,99.90
2019-05-09T06:29:13.592Z,99.90
2019-05-09T06:31:40.067Z,99.90
2019-05-09T06:34:08.323Z,99.90
2019-05-09T06:36:34.789Z,99.90
2019-05-09T06:39:01.353Z,99.90
2019-05-09T06:41:29.131Z,99.90
2019-05-09T06:44:11.071Z,99.90
2019-05-09T06:46:27.849Z,99.90
2019-05-09T06:49:17.948Z,99.90
2019-05-09T06:51:23.117Z,99.90
2019-05-09T06:53:49.510Z,99.90
2019-05-09T06:56:17.804Z,99.90
2019-05-09T06:58:44.186Z,99.90
2019-05-09T07:01:24.234Z,99.90
2019-05-09T07:03:57.405Z,99.90
2019-05-09T07:06:43.498Z,99.90
2019-05-09T07:09:11.822Z,99.90
2019-05-09T07:11:38.351Z,99.90
2019-05-09T07:14:04.848Z,99.90
2019-05-09T07:16:31.444Z,99.90
2019-05-09T07:18:58.131Z,99.90
2019-05-09T07:21:28.603Z,99.90
2019-05-09T07:23:54.809Z,99.90
2019-05-09T07:26:23.019Z,99.90
2019-05-09T07:28:49.465Z,99.90
2019-05-09T07:31:20.614Z,99.90
2019-05-09T07:33:48.918Z,99.90
2019-05-09T07:36:15.423Z,99.90
2019-05-09T07:38:41.893Z,99.90
2019-05-09T07:41:09.008Z,99.90
2019-05-09T07:43:35.574Z,99.90
2019-05-09T07:46:08.891Z,99.90
2019-05-09T07:48:38.048Z,99.90
2019-05-09T07:51:04.872Z,99.90
2019-05-09T07:53:31.382Z,99.90
2019-05-09T07:55:58.257Z,99.90
2019-05-09T07:58:24.706Z,99.90
2019-05-09T08:00:51.201Z,99.90
2019-05-09T08:03:18.164Z,99.90
2019-05-09T08:05:44.542Z,99.90
2019-05-09T08:08:15.326Z,99.90
2019-05-09T08:10:41.840Z,99.90
2019-05-09T08:13:11.626Z,99.90
2019-05-09T08:15:37.852Z,99.90
2019-05-09T08:18:04.526Z,99.90
2019-05-09T08:20:30.984Z,99.90
2019-05-09T08:23:01.466Z,99.90
2019-05-09T08:25:27.734Z,99.90
2019-05-09T08:27:54.110Z,99.90
2019-05-09T08:30:20.594Z,99.90
2019-05-09T08:32:48.241Z,99.90
2019-05-09T08:35:15.098Z,99.90
2019-05-09T08:37:41.481Z,99.90
2019-05-09T08:40:08.363Z,99.90
2019-05-09T08:42:34.724Z,99.90
2019-05-09T08:45:00.976Z,99.90
2019-05-09T08:47:27.886Z,99.90
2019-05-09T08:50:13.021Z,99.90
2019-05-09T08:52:39.536Z,99.90
2019-05-09T08:55:08.151Z,99.90
2019-05-09T08:57:34.320Z,99.90
2019-05-09T09:00:00.838Z,99.90
2019-05-09T09:02:28.320Z,99.90
2019-05-09T09:04:54.821Z,99.90
2019-05-09T09:07:21.277Z,99.90
2019-05-09T09:09:48.322Z,99.90
2019-05-09T09:12:26.998Z,99.90
2019-05-09T09:14:43.115Z,99.90
2019-05-09T09:17:09.628Z,99.90
2019-05-09T09:19:38.382Z,99.90
2019-05-09T09:22:04.428Z,99.90
2019-05-09T09:24:30.871Z,99.90
2019-05-09T09:26:57.657Z,99.90
2019-05-09T09:29:24.037Z,99.90
2019-05-09T09:31:50.518Z,99.90
2019-05-09T09:34:18.126Z,99.90
2019-05-09T09:36:44.507Z,99.90
2019-05-09T09:39:10.992Z,99.90
2019-05-09T09:41:38.622Z,99.90
2019-05-09T09:44:05.451Z,99.90
2019-05-09T09:46:31.897Z,99.90
2019-05-09T09:48:58.816Z,99.90
2019-05-09T09:51:27.482Z,99.90
2019-05-09T09:53:54.099Z,99.90
2019-05-09T09:56:22.578Z,99.90
2019-05-09T09:58:50.661Z,99.90
2019-05-09T10:01:21.515Z,99.90
2019-05-09T10:03:49.916Z,99.90
2019-05-09T10:06:16.426Z,99.90
2019-05-09T10:08:42.803Z,99.90
2019-05-09T10:11:09.394Z,99.90
2019-05-09T10:13:37.485Z,99.90
2019-05-09T10:16:25.558Z,99.90
2019-05-09T10:18:53.674Z,99.90
2019-05-09T10:21:24.591Z,99.90
2019-05-09T10:23:51.054Z,99.90
2019-05-09T10:26:17.915Z,99.90
2019-05-09T10:28:45.507Z,99.90
2019-05-09T10:31:12.065Z,99.90
2019-05-09T10:33:38.552Z,99.90
2019-05-09T10:36:05.173Z,99.90
2019-05-09T10:38:31.623Z,99.90
2019-05-09T10:41:01.170Z,99.90
2019-05-09T10:43:35.681Z,99.90
2019-05-09T10:46:00.382Z,99.90
2019-05-09T10:48:28.309Z,99.90
2019-05-09T10:50:55.031Z,99.90
2019-05-09T10:53:22.962Z,99.90
2019-05-09T10:55:49.247Z,99.90
2019-05-09T10:58:15.727Z,99.90
2019-05-09T11:00:42.194Z,99.90
2019-05-09T11:03:08.934Z,99.90
2019-05-09T11:05:35.502Z,99.90
2019-05-09T11:08:03.134Z,99.90
2019-05-09T11:10:32.689Z,99.90
2019-05-09T11:12:58.522Z,99.90
2019-05-09T11:15:24.874Z,99.90
2019-05-09T11:17:51.261Z,99.90
2019-05-09T11:20:19.355Z,99.90
2019-05-09T11:22:45.896Z,99.90
2019-05-09T11:25:12.472Z,99.90
2019-05-09T11:27:38.967Z,99.90
2019-05-09T11:30:08.173Z,99.90
2019-05-09T11:32:33.854Z,99.90
2019-05-09T11:35:00.826Z,99.90
2019-05-09T11:37:28.599Z,99.80
2019-05-09T11:39:55.186Z,98.50
2019-05-09T11:42:21.670Z,98.80
2019-05-09T11:44:48.058Z,98.50
2019-05-09T11:47:31.394Z,97.90
2019-05-09T11:49:43.048Z,97.50
2019-05-09T11:52:09.551Z,96.60
2019-05-09T11:54:35.919Z,96.50
2019-05-09T11:57:02.389Z,95.30
2019-05-09T11:59:28.729Z,95.70
2019-05-09T12:01:55.215Z,94.80
2019-05-09T12:04:21.551Z,95.10
2019-05-09T12:06:49.302Z,94.20
2019-05-09T12:09:16.133Z,93.90
2019-05-09T12:11:44.545Z,94.00
2019-05-09T12:14:11.030Z,93.40
2019-05-09T12:16:38.088Z,92.70
2019-05-09T12:19:04.585Z,92.10
2019-05-09T12:21:30.964Z,92.10
2019-05-09T12:23:58.148Z,92.50
2019-05-09T12:26:24.941Z,92.70
2019-05-09T12:28:51.531Z,92.90
2019-05-09T12:31:18.287Z,93.60
2019-05-09T12:33:44.739Z,92.90
2019-05-09T12:36:11.123Z,93.00
2019-05-09T12:38:38.880Z,93.20
2019-05-09T12:41:07.717Z,92.90
2019-05-09T12:43:33.836Z,93.20
2019-05-09T12:46:00.286Z,93.10
2019-05-09T12:48:27.837Z,92.40
2019-05-09T12:50:54.795Z,93.00
2019-05-09T12:53:21.183Z,93.40
2019-05-09T12:55:49.573Z,93.20
2019-05-09T12:58:27.905Z,93.20
2019-05-09T13:00:58.003Z,92.60
2019-05-09T13:03:24.560Z,92.30
2019-05-09T13:05:51.303Z,92.80
2019-05-09T13:08:17.903Z,92.70
2019-05-09T13:10:44.243Z,92.90
2019-05-09T13:13:10.789Z,93.00
2019-05-09T13:15:39.124Z,93.50
2019-05-09T13:18:05.522Z,93.70
2019-05-09T13:20:32.019Z,92.70
2019-05-09T13:22:58.956Z,92.60
2019-05-09T13:25:25.229Z,92.40
2019-05-09T13:27:52.965Z,92.50
2019-05-09T13:30:19.816Z,92.60
2019-05-09T13:32:48.397Z,93.10
2019-05-09T13:35:14.473Z,93.30
2019-05-09T13:37:40.855Z,93.50
2019-05-09T13:40:08.601Z,93.80
2019-05-09T13:42:34.965Z,93.80
2019-05-09T13:45:01.521Z,93.90
2019-05-09T13:47:28.170Z,93.50
2019-05-09T13:49:56.031Z,94.30
2019-05-09T13:52:22.573Z,95.20
2019-05-09T13:54:49.060Z,95.50
2019-05-09T13:57:15.557Z,95.20
2019-05-09T13:59:42.008Z,95.70
2019-05-09T14:02:08.400Z,95.80
2019-05-09T14:04:34.913Z,95.80
2019-05-09T14:07:01.567Z,95.80
2019-05-09T14:09:29.324Z,96.40
2019-05-09T14:11:58.580Z,96.10
2019-05-09T14:14:24.162Z,95.70
2019-05-09T14:16:50.657Z,95.90
2019-05-09T14:19:42.540Z,95.90
2019-05-09T14:21:47.971Z,95.90
2019-05-09T14:24:19.069Z,95.90
2019-05-09T14:26:44.105Z,96.30
2019-05-09T14:29:13.149Z,96.30
2019-05-09T14:31:39.614Z,95.70
2019-05-09T14:34:08.562Z,95.70
2019-05-09T14:36:34.700Z,95.50
2019-05-09T14:39:01.189Z,95.40
2019-05-09T14:41:27.912Z,95.50
2019-05-09T14:43:54.671Z,95.40
2019-05-09T14:46:21.186Z,95.40
2019-05-09T14:48:48.827Z,95.10
2019-05-09T14:51:15.285Z,95.40
2019-05-09T14:53:41.674Z,95.60
2019-05-09T14:56:08.851Z,95.70
2019-05-09T14:58:35.242Z,96.00
2019-05-09T15:01:02.602Z,95.90
2019-05-09T15:03:29.128Z,96.20
2019-05-09T15:05:57.379Z,96.10
2019-05-09T15:08:24.929Z,96.30
2019-05-09T15:10:51.499Z,96.20
2019-05-09T15:13:18.398Z,96.20
2019-05-09T15:15:45.227Z,96.20
2019-05-09T15:18:11.766Z,95.90
2019-05-09T15:20:40.234Z,95.90
2019-05-09T15:23:08.618Z,95.80
2019-05-09T15:25:35.079Z,96.10
2019-05-09T15:28:01.455Z,95.90
2019-05-09T15:30:30.122Z,96.10
2019-05-09T15:32:58.429Z,96.30
2019-05-09T15:35:24.766Z,96.40
2019-05-09T15:37:51.141Z,96.30
2019-05-09T15:40:17.900Z,96.00
2019-05-09T15:42:44.514Z,96.20
2019-05-09T15:45:11.105Z,96.30
2019-05-09T15:47:38.379Z,96.40
2019-05-09T15:50:18.443Z,96.60
2019-05-09T15:52:38.072Z,96.70
2019-05-09T15:55:04.711Z,96.50
2019-05-09T15:57:31.727Z,96.40
2019-05-09T15:59:58.886Z,96.40
2019-05-09T16:02:28.063Z,96.90
2019-05-09T16:04:53.985Z,96.70
2019-05-09T16:07:20.460Z,96.90
2019-05-09T16:09:48.325Z,96.90
2019-05-09T16:12:14.811Z,97.10
2019-05-09T16:14:41.183Z,97.20
2019-05-09T16:17:07.939Z,96.90
2019-05-09T16:19:34.518Z,96.80
2019-05-09T16:22:02.103Z,96.80
2019-05-09T16:24:29.381Z,96.40
2019-05-09T16:26:57.811Z,96.80
2019-05-09T16:29:24.374Z,97.00
2019-05-09T16:31:50.830Z,97.20
2019-05-09T16:34:17.825Z,96.90
2019-05-09T16:36:44.405Z,96.90
2019-05-09T16:39:10.939Z,96.70
2019-05-09T16:41:39.238Z,97.10
2019-05-09T16:44:07.736Z,97.50
2019-05-09T16:46:33.884Z,97.80
2019-05-09T16:49:11.666Z,98.20
2019-05-09T16:51:37.805Z,98.00
2019-05-09T16:54:07.254Z,98.20
2019-05-09T16:56:33.599Z,98.60
2019-05-09T16:59:00.137Z,99.00
2019-05-09T17:01:28.351Z,99.40
2019-05-09T17:03:57.336Z,99.70
2019-05-09T17:06:23.434Z,99.90
2019-05-09T17:08:49.942Z,99.90
2019-05-09T17:11:19.136Z,99.90
2019-05-09T17:13:44.804Z,99.90
2019-05-09T17:16:11.519Z,99.90
2019-05-09T17:18:38.258Z,99.90
2019-05-09T17:21:18.436Z,99.90
2019-05-09T17:23:38.484Z,99.90
2019-05-09T17:26:05.030Z,99.90
2019-05-09T17:28:31.483Z,99.90
2019-05-09T17:30:58.179Z,99.90
2019-05-09T17:33:24.806Z,99.90
2019-05-09T17:35:51.491Z,99.90
2019-05-09T17:38:18.235Z,99.90
2019-05-09T17:40:44.781Z,99.90
2019-05-09T17:43:11.245Z,99.90
2019-05-09T17:45:41.421Z,99.90
2019-05-09T17:48:08.417Z,99.90
2019-05-09T17:50:34.443Z,99.90
2019-05-09T17:53:00.888Z,99.90
2019-05-09T17:55:27.526Z,99.90
2019-05-09T17:57:54.332Z,99.90
2019-05-09T18:00:22.059Z,99.90
2019-05-09T18:02:48.874Z,99.90
2019-05-09T18:05:15.520Z,99.90
2019-05-09T18:07:42.093Z,99.90
2019-05-09T18:10:08.655Z,99.90
2019-05-09T18:12:35.343Z,99.90
2019-05-09T18:15:04.170Z,99.90
2019-05-09T18:17:30.761Z,99.90
2019-05-09T18:19:58.410Z,99.90
2019-05-09T18:22:25.021Z,99.90
2019-05-09T18:24:51.455Z,99.90
2019-05-09T18:27:18.246Z,99.90
2019-05-09T18:29:44.885Z,99.90
2019-05-09T18:32:15.809Z,99.90
2019-05-09T18:34:43.548Z,99.90
2019-05-09T18:37:10.138Z,99.90
2019-05-09T18:39:37.474Z,99.90
2019-05-09T18:42:04.201Z,99.90
2019-05-09T18:44:30.551Z,99.90
2019-05-09T18:46:57.715Z,99.90
2019-05-09T18:49:24.489Z,99.90
2019-05-09T18:52:02.757Z,99.90
2019-05-09T18:54:19.116Z,99.90
2019-05-09T18:56:45.485Z,99.90
2019-05-09T18:59:12.009Z,99.90
2019-05-09T19:01:38.482Z,99.90
2019-05-09T19:04:04.964Z,99.90
2019-05-09T19:06:31.407Z,99.90
2019-05-09T19:08:57.878Z,99.90
2019-05-09T19:11:24.353Z,99.90
2019-05-09T19:13:50.613Z,99.90
2019-05-09T19:16:24.873Z,99.90
2019-05-09T19:18:53.082Z,99.90
2019-05-09T19:21:21.466Z,99.90
2019-05-09T19:23:47.947Z,99.90
2019-05-09T19:26:32.445Z,99.90
2019-05-09T19:28:58.770Z,99.90
2019-05-09T19:31:25.232Z,99.90
2019-05-09T19:33:51.701Z,99.90
2019-05-09T19:36:18.070Z,99.90
2019-05-09T19:38:44.497Z,99.90
2019-05-09T19:41:10.794Z,99.90
2019-05-09T19:43:37.412Z,99.90
2019-05-09T19:46:03.991Z,99.90
2019-05-09T19:48:30.210Z,99.90
2019-05-09T19:50:56.829Z,99.90
2019-05-09T19:53:23.359Z,99.90
2019-05-09T19:55:49.725Z,99.90
2019-05-09T19:58:16.210Z,99.90
2019-05-09T20:00:42.731Z,99.90
2019-05-09T20:03:09.091Z,99.90
2019-05-09T20:05:35.562Z,99.90
2019-05-09T20:08:02.532Z,99.90
2019-05-09T20:10:30.836Z,99.90
2019-05-09T20:13:16.859Z,99.90
2019-05-09T20:15:43.134Z,99.90
2019-05-09T20:18:09.434Z,99.90
2019-05-09T20:20:35.663Z,99.90
2019-05-09T20:23:02.115Z,99.90
2019-05-09T20:25:28.545Z,99.90
2019-05-09T20:27:54.873Z,99.90
2019-05-09T20:30:21.362Z,99.90
2019-05-09T20:32:47.707Z,99.90
2019-05-09T20:35:14.322Z,99.90
2019-05-09T20:37:40.603Z,99.90
2019-05-09T20:40:07.079Z,99.90
2019-05-09T20:42:33.587Z,99.90
2019-05-09T20:44:59.852Z,99.90
2019-05-09T20:47:26.434Z,99.90
2019-05-09T20:49:53.106Z,99.90
2019-05-09T20:52:21.608Z,99.90
2019-05-09T20:54:47.519Z,99.90
2019-05-09T20:57:13.999Z,99.90
2019-05-09T20:59:40.275Z,99.90
2019-05-09T21:02:07.077Z,99.90
2019-05-09T21:04:33.503Z,99.90
2019-05-09T21:07:00.096Z,99.90
2019-05-09T21:09:26.524Z,99.90
2019-05-09T21:11:52.879Z,99.90
2019-05-09T21:14:19.271Z,99.90
2019-05-09T21:16:45.639Z,99.90
2019-05-09T21:19:12.091Z,99.90
2019-05-09T21:21:38.566Z,99.90
2019-05-09T21:24:04.942Z,99.90
2019-05-09T21:26:31.318Z,99.90
2019-05-09T21:28:57.673Z,99.90
2019-05-09T21:31:24.127Z,99.90
2019-05-09T21:33:50.722Z,99.90
2019-05-09T21:36:17.198Z,99.90
2019-05-09T21:38:43.708Z,99.90
2019-05-09T21:41:10.238Z,99.90
2019-05-09T21:43:36.599Z,99.90
2019-05-09T21:46:03.189Z,99.90
2019-05-09T21:48:29.506Z,99.90
2019-05-09T21:50:55.964Z,99.90
2019-05-09T21:53:22.342Z,99.90
2019-05-09T21:55:48.742Z,99.90
2019-05-09T21:58:15.268Z,99.90
2019-05-09T22:00:44.302Z,99.90
2019-05-09T22:03:10.927Z,99.90
2019-05-09T22:05:37.452Z,99.90
2019-05-09T22:08:03.948Z,99.90
2019-05-09T22:10:30.580Z,99.90
2019-05-09T22:12:57.068Z,99.90
2019-05-09T22:15:23.703Z,99.90
2019-05-09T22:17:50.519Z,99.90
2019-05-09T22:20:17.329Z,99.90
2019-05-09T22:22:43.791Z,99.90
2019-05-09T22:25:10.584Z,99.90
2019-05-09T22:27:37.191Z,99.90
2019-05-09T22:30:07.550Z,99.90
2019-05-09T22:32:34.027Z,99.90
2019-05-09T22:35:00.532Z,99.90
2019-05-09T22:37:27.215Z,99.90
2019-05-09T22:39:53.620Z,99.90
2019-05-09T22:42:20.097Z,99.90
2019-05-09T22:44:46.456Z,99.90
2019-05-09T22:47:13.959Z,99.90
2019-05-09T22:49:40.426Z,99.90
2019-05-09T22:52:06.921Z,99.90
2019-05-09T22:54:33.397Z,99.90
2019-05-09T22:56:59.704Z,99.90
2019-05-09T22:59:26.077Z,99.90
2019-05-09T23:01:52.505Z,99.90
2019-05-09T23:04:19.035Z,99.90
2019-05-09T23:06:45.479Z,99.90
2019-05-09T23:09:11.972Z,99.90
2019-05-09T23:11:38.371Z,99.90
2019-05-09T23:14:04.866Z,99.90
2019-05-09T23:16:33.299Z,99.90
2019-05-09T23:18:59.609Z,99.90
2019-05-09T23:21:27.808Z,99.90
2019-05-09T23:24:02.123Z,99.90
2019-05-09T23:26:28.623Z,99.90
2019-05-09T23:28:55.017Z,99.90
2019-05-09T23:31:23.352Z,99.90
2019-05-09T23:33:49.834Z,99.90
2019-05-09T23:36:16.140Z,99.90
2019-05-09T23:39:01.054Z,99.90
2019-05-09T23:41:27.625Z,99.90
2019-05-09T23:43:55.889Z,99.90
2019-05-09T23:46:22.457Z,99.90
2019-05-09T23:48:48.944Z,99.90
2019-05-09T23:51:15.413Z,99.90
2019-05-09T23:53:43.773Z,99.90
2019-05-09T23:56:28.707Z,99.90
2019-05-09T23:59:13.258Z,99.90
